createdAt,value
2023-01-22T00:01:53.393Z,8.20
2023-01-22T00:04:31.017Z,8.30
2023-01-22T00:07:01.739Z,8.18
2023-01-22T00:09:43.726Z,8.28
2023-01-22T00:12:11.779Z,8.32
2023-01-22T00:14:40.631Z,8.33
2023-01-22T00:17:10.522Z,8.28
2023-01-22T00:19:38.806Z,8.22
2023-01-22T00:22:08.390Z,8.32
2023-01-22T00:24:39.887Z,8.26
2023-01-22T00:27:20.182Z,8.31
2023-01-22T00:29:50.208Z,8.33
2023-01-22T00:32:19.772Z,8.33
2023-01-22T00:34:52.708Z,8.35
2023-01-22T00:37:21.220Z,8.35
2023-01-22T00:39:49.502Z,8.36
2023-01-22T00:42:17.585Z,8.37
2023-01-22T00:44:45.579Z,8.37
2023-01-22T00:47:13.869Z,8.32
2023-01-22T00:49:43.231Z,8.38
2023-01-22T00:52:14.270Z,8.36
2023-01-22T00:54:43.943Z,8.38
2023-01-22T00:57:12.839Z,8.39
2023-01-22T00:59:41.538Z,8.38
2023-01-22T01:02:09.887Z,8.39
2023-01-22T01:04:38.693Z,8.37
2023-01-22T01:07:08.119Z,8.36
2023-01-22T01:09:37.804Z,8.36
2023-01-22T01:12:09.471Z,8.33
2023-01-22T01:14:37.834Z,8.31
2023-01-22T01:17:05.864Z,8.28
2023-01-22T01:19:38.447Z,8.27
2023-01-22T01:22:10.058Z,8.23
2023-01-22T01:24:39.319Z,8.21
2023-01-22T01:27:22.162Z,8.19
2023-01-22T01:29:53.098Z,8.10
2023-01-22T01:32:21.145Z,8.19
2023-01-22T01:34:55.210Z,8.21
2023-01-22T01:37:25.527Z,8.16
2023-01-22T01:39:53.809Z,7.99
2023-01-22T01:42:25.973Z,8.22
2023-01-22T01:45:27.285Z,8.24
2023-01-22T01:47:58.996Z,8.09
2023-01-22T01:50:28.089Z,8.30
2023-01-22T01:52:57.994Z,8.31
2023-01-22T01:55:56.169Z,8.28
2023-01-22T01:58:25.798Z,8.29
2023-01-22T02:00:59.706Z,8.36
2023-01-22T02:03:28.369Z,8.32
2023-01-22T02:05:57.975Z,8.37
2023-01-22T02:08:28.664Z,8.41
2023-01-22T02:10:58.099Z,8.40
2023-01-22T02:13:31.109Z,8.39
2023-01-22T02:16:04.181Z,8.38
2023-01-22T02:18:32.325Z,8.37
2023-01-22T02:21:02.127Z,8.34
2023-01-22T02:23:31.938Z,8.29
2023-01-22T02:25:59.987Z,8.29
2023-01-22T02:28:27.955Z,8.37
2023-01-22T02:30:57.183Z,8.38
2023-01-22T02:33:36.392Z,8.37
2023-01-22T02:36:09.082Z,8.38
2023-01-22T02:38:41.307Z,8.38
2023-01-22T02:41:12.111Z,8.40
2023-01-22T02:43:42.177Z,8.27
2023-01-22T02:46:27.179Z,8.41
2023-01-22T02:48:55.239Z,8.44
2023-01-22T02:51:26.804Z,8.42
2023-01-22T02:53:54.811Z,8.45
2023-01-22T02:56:23.266Z,8.40
2023-01-22T02:58:56.354Z,8.45
2023-01-22T03:01:25.980Z,8.44
2023-01-22T03:03:56.188Z,8.45
2023-01-22T03:06:29.395Z,8.45
2023-01-22T03:09:03.855Z,8.44
2023-01-22T03:11:39.121Z,8.31
2023-01-22T03:14:28.589Z,8.43
2023-01-22T03:17:14.544Z,8.41
2023-01-22T03:20:00.097Z,8.34
2023-01-22T03:22:29.976Z,8.35
2023-01-22T03:25:02.754Z,8.32
2023-01-22T03:27:32.491Z,8.34
2023-01-22T03:30:00.700Z,8.34
2023-01-22T03:32:33.797Z,8.13
2023-01-22T03:35:02.786Z,8.32
2023-01-22T03:37:47.159Z,8.32
2023-01-22T03:40:23.628Z,8.33
2023-01-22T03:42:51.771Z,8.31
2023-01-22T03:45:19.765Z,8.27
2023-01-22T03:47:49.267Z,8.33
2023-01-22T03:50:28.622Z,8.35
2023-01-22T03:52:58.891Z,8.35
2023-01-22T03:55:27.956Z,8.37
2023-01-22T03:57:55.986Z,8.40
2023-01-22T04:00:24.116Z,8.40
2023-01-22T04:02:53.636Z,8.44
2023-01-22T04:05:28.535Z,8.44
2023-01-22T04:07:59.029Z,8.46
2023-01-22T04:10:30.614Z,8.48
2023-01-22T04:13:00.805Z,8.51
2023-01-22T04:15:28.903Z,8.52
2023-01-22T04:18:01.467Z,8.43
2023-01-22T04:20:36.100Z,8.33
2023-01-22T04:23:22.390Z,8.51
2023-01-22T04:25:53.138Z,8.55
2023-01-22T04:28:22.057Z,8.55
2023-01-22T04:30:56.418Z,8.43
2023-01-22T04:33:43.138Z,8.55
2023-01-22T04:36:16.333Z,8.54
2023-01-22T04:38:49.448Z,8.55
2023-01-22T04:41:17.996Z,8.55
2023-01-22T04:43:46.028Z,8.53
2023-01-22T04:46:14.404Z,8.54
2023-01-22T04:48:48.432Z,8.54
2023-01-22T04:51:17.428Z,8.54
2023-01-22T04:53:47.590Z,8.49
2023-01-22T04:56:18.321Z,8.53
2023-01-22T04:58:49.614Z,8.51
2023-01-22T05:01:19.912Z,8.52
2023-01-22T05:03:48.153Z,8.51
2023-01-22T05:06:16.524Z,8.50
2023-01-22T05:08:44.497Z,8.48
2023-01-22T05:11:17.005Z,8.48
2023-01-22T05:13:55.479Z,8.49
2023-01-22T05:16:24.054Z,8.48
2023-01-22T05:18:52.058Z,8.48
2023-01-22T05:21:24.842Z,8.46
2023-01-22T05:23:52.985Z,8.45
2023-01-22T05:26:26.071Z,8.47
2023-01-22T05:29:04.696Z,8.49
2023-01-22T05:31:51.055Z,8.47
2023-01-22T05:34:29.956Z,8.39
2023-01-22T05:36:58.438Z,8.51
2023-01-22T05:39:28.313Z,8.50
2023-01-22T05:42:00.015Z,8.54
2023-01-22T05:44:33.432Z,8.53
2023-01-22T05:47:03.054Z,8.55
2023-01-22T05:49:38.313Z,8.56
2023-01-22T05:52:07.387Z,8.53
2023-01-22T05:54:35.325Z,8.60
2023-01-22T05:57:07.277Z,8.50
2023-01-22T05:59:36.415Z,8.63
2023-01-22T06:02:07.070Z,8.58
2023-01-22T06:04:43.017Z,8.66
2023-01-22T06:07:22.992Z,8.66
2023-01-22T06:09:50.975Z,8.70
2023-01-22T06:12:23.371Z,8.70
2023-01-22T06:14:53.698Z,8.73
2023-01-22T06:17:21.759Z,8.76
2023-01-22T06:19:55.421Z,8.77
2023-01-22T06:22:24.052Z,8.59
2023-01-22T06:24:56.435Z,8.81
2023-01-22T06:28:06.117Z,8.84
2023-01-22T06:34:35.808Z,8.74
2023-01-22T06:37:41.831Z,8.76
2023-01-22T06:40:11.363Z,8.78
2023-01-22T06:42:46.937Z,8.82
2023-01-22T06:45:16.571Z,8.80
2023-01-22T06:47:52.461Z,8.73
2023-01-22T06:50:24.189Z,8.86
2023-01-22T06:52:52.405Z,8.85
2023-01-22T06:55:25.630Z,8.85
2023-01-22T06:57:59.958Z,8.84
2023-01-22T07:00:29.655Z,8.70
2023-01-22T07:02:58.376Z,8.79
2023-01-22T07:05:27.465Z,8.78
2023-01-22T07:07:55.838Z,8.78
2023-01-22T07:10:23.898Z,8.72
2023-01-22T07:12:55.295Z,8.81
2023-01-22T07:15:24.171Z,8.81
2023-01-22T07:18:01.134Z,8.75
2023-01-22T07:20:38.055Z,8.86
2023-01-22T07:23:08.375Z,8.82
2023-01-22T07:25:50.533Z,8.87
2023-01-22T07:28:18.706Z,8.93
2023-01-22T07:30:47.227Z,8.90
2023-01-22T07:33:16.801Z,8.89
2023-01-22T07:35:45.403Z,8.98
2023-01-22T07:38:21.077Z,9.02
2023-01-22T07:40:57.597Z,9.02
2023-01-22T07:43:27.024Z,9.04
2023-01-22T07:45:55.242Z,9.06
2023-01-22T07:48:29.814Z,8.97
2023-01-22T07:51:00.516Z,9.09
2023-01-22T07:53:28.927Z,9.10
2023-01-22T07:55:56.980Z,9.09
2023-01-22T07:58:24.981Z,9.12
2023-01-22T08:00:55.356Z,9.12
2023-01-22T08:03:24.771Z,9.04
2023-01-22T08:05:52.774Z,9.12
2023-01-22T08:08:26.206Z,9.17
2023-01-22T08:11:04.080Z,9.17
2023-01-22T08:13:34.913Z,9.18
2023-01-22T08:16:02.974Z,9.19
2023-01-22T08:18:34.896Z,9.18
2023-01-22T08:21:02.965Z,9.20
2023-01-22T08:23:31.080Z,9.12
2023-01-22T08:26:03.378Z,9.19
2023-01-22T08:28:31.446Z,9.19
2023-01-22T08:30:59.905Z,9.17
2023-01-22T08:33:30.440Z,9.17
2023-01-22T08:36:14.466Z,9.18
2023-01-22T08:38:42.575Z,9.17
2023-01-22T08:41:10.694Z,9.18
2023-01-22T08:43:38.634Z,9.15
2023-01-22T08:46:08.164Z,9.16
2023-01-22T08:48:37.980Z,9.16
2023-01-22T08:51:07.691Z,9.14
2023-01-22T08:53:38.945Z,9.14
2023-01-22T08:56:07.915Z,9.09
2023-01-22T08:58:36.423Z,9.14
2023-01-22T09:01:04.557Z,9.14
2023-01-22T09:03:38.372Z,8.95
2023-01-22T09:06:07.874Z,9.17
2023-01-22T09:08:43.241Z,9.16
2023-01-22T09:11:12.495Z,9.16
2023-01-22T09:13:40.711Z,9.17
2023-01-22T09:16:12.976Z,9.20
2023-01-22T09:18:41.029Z,9.20
2023-01-22T09:21:11.731Z,9.31
2023-01-22T09:23:39.784Z,9.23
2023-01-22T09:26:07.745Z,9.38
2023-01-22T09:28:36.240Z,9.46
2023-01-22T09:31:04.493Z,9.50
2023-01-22T09:33:32.548Z,9.55
2023-01-22T09:36:08.505Z,9.60
2023-01-22T09:38:40.306Z,9.52
2023-01-22T09:41:13.260Z,9.66
2023-01-22T09:43:46.750Z,9.62
2023-01-22T09:46:17.831Z,9.78
2023-01-22T09:48:48.997Z,9.79
2023-01-22T09:51:17.171Z,9.89
2023-01-22T09:53:46.694Z,9.95
2023-01-22T09:56:20.882Z,10.02
2023-01-22T09:58:49.930Z,10.07
2023-01-22T10:01:18.349Z,10.12
2023-01-22T10:03:48.028Z,10.06
2023-01-22T10:06:21.100Z,10.28
2023-01-22T10:08:55.306Z,10.20
2023-01-22T10:11:27.875Z,10.43
2023-01-22T10:13:56.804Z,10.45
2023-01-22T10:16:25.674Z,10.54
2023-01-22T10:19:00.652Z,10.60
2023-01-22T10:21:30.758Z,10.64
2023-01-22T10:24:00.831Z,10.72
2023-01-22T10:26:35.332Z,10.79
2023-01-22T10:29:08.458Z,10.83
2023-01-22T10:31:41.563Z,10.94
2023-01-22T10:34:14.330Z,10.98
2023-01-22T10:36:47.725Z,11.05
2023-01-22T10:39:18.120Z,11.08
2023-01-22T10:41:47.981Z,11.14
2023-01-22T10:44:23.117Z,11.10
2023-01-22T10:46:52.848Z,11.19
2023-01-22T10:49:21.825Z,11.12
2023-01-22T10:51:54.694Z,11.20
2023-01-22T10:54:29.720Z,11.12
2023-01-22T10:57:19.614Z,11.13
2023-01-22T10:59:50.954Z,11.14
2023-01-22T11:02:22.980Z,11.10
2023-01-22T11:05:00.548Z,11.07
2023-01-22T11:07:32.775Z,11.03
2023-01-22T11:10:10.842Z,11.03
2023-01-22T11:12:42.527Z,10.95
2023-01-22T11:15:14.960Z,10.98
2023-01-22T11:17:45.210Z,10.95
2023-01-22T11:20:17.724Z,10.99
2023-01-22T11:22:47.544Z,10.93
2023-01-22T11:25:17.102Z,10.96
2023-01-22T11:27:56.274Z,10.96
2023-01-22T11:30:52.295Z,11.01
2023-01-22T11:33:27.044Z,11.03
2023-01-22T11:36:00.033Z,10.95
2023-01-22T11:38:34.043Z,11.05
2023-01-22T11:41:30.052Z,11.08
2023-01-22T11:44:38.404Z,11.11
2023-01-22T11:47:23.327Z,11.05
2023-01-22T11:49:58.991Z,11.13
2023-01-22T11:52:47.000Z,11.14
2023-01-22T11:55:33.081Z,11.22
2023-01-22T11:58:10.611Z,11.25
2023-01-22T12:00:44.576Z,11.30
2023-01-22T12:03:46.493Z,11.31
2023-01-22T12:06:29.404Z,11.34
2023-01-22T12:09:02.906Z,11.39
2023-01-22T12:11:37.324Z,11.43
2023-01-22T12:14:20.834Z,11.44
2023-01-22T12:16:55.685Z,11.47
2023-01-22T12:19:45.144Z,11.52
2023-01-22T12:22:22.064Z,11.56
2023-01-22T12:24:56.002Z,11.59
2023-01-22T12:27:26.144Z,11.64
2023-01-22T12:29:58.721Z,11.68
2023-01-22T12:32:27.727Z,11.74
2023-01-22T12:34:57.520Z,11.77
2023-01-22T12:37:26.731Z,11.81
2023-01-22T12:40:06.137Z,11.79
2023-01-22T12:42:36.892Z,11.82
2023-01-22T12:45:15.066Z,11.79
2023-01-22T12:47:51.637Z,11.87
2023-01-22T12:50:23.919Z,11.90
2023-01-22T12:52:59.307Z,11.94
2023-01-22T12:55:34.984Z,11.88
2023-01-22T12:58:03.353Z,12.00
2023-01-22T13:00:39.325Z,11.94
2023-01-22T13:03:30.979Z,12.03
2023-01-22T13:06:00.304Z,12.10
2023-01-22T13:08:36.387Z,12.08
2023-01-22T13:11:07.801Z,12.16
2023-01-22T13:13:44.588Z,12.18
2023-01-22T13:19:18.551Z,12.22
2023-01-22T13:21:47.802Z,12.24
2023-01-22T13:24:17.865Z,12.27
2023-01-22T13:26:52.273Z,12.28
2023-01-22T13:29:22.105Z,12.36
2023-01-22T13:31:55.671Z,12.37
2023-01-22T13:34:23.844Z,12.36
2023-01-22T13:36:52.279Z,12.42
2023-01-22T13:39:22.367Z,12.44
2023-01-22T13:41:52.244Z,12.45
2023-01-22T13:44:21.683Z,12.46
2023-01-22T13:46:49.715Z,12.46
2023-01-22T13:49:22.498Z,12.46
2023-01-22T13:51:50.915Z,12.48
2023-01-22T13:54:23.654Z,12.48
2023-01-22T13:56:53.256Z,12.51
2023-01-22T13:59:23.080Z,12.53
2023-01-22T14:01:52.171Z,12.53
2023-01-22T14:04:30.393Z,12.45
2023-01-22T14:06:58.617Z,12.59
2023-01-22T14:09:30.861Z,12.51
2023-01-22T14:11:59.108Z,12.61
2023-01-22T14:14:36.541Z,12.60
2023-01-22T14:17:04.926Z,12.64
2023-01-22T14:19:36.683Z,12.65
2023-01-22T14:22:06.087Z,12.70
2023-01-22T14:24:34.234Z,12.68
2023-01-22T14:27:04.624Z,12.74
2023-01-22T14:29:32.981Z,12.73
2023-01-22T14:34:44.990Z,12.74
2023-01-22T14:37:15.865Z,12.81
2023-01-22T14:39:44.089Z,12.81
2023-01-22T14:42:14.399Z,12.79
2023-01-22T14:44:42.451Z,12.85
2023-01-22T14:47:13.628Z,12.85
2023-01-22T14:49:41.752Z,12.84
2023-01-22T14:52:12.945Z,12.80
2023-01-22T14:54:41.099Z,12.89
2023-01-22T14:57:23.933Z,12.78
2023-01-22T14:59:52.191Z,12.85
2023-01-22T15:02:20.602Z,12.83
2023-01-22T15:04:48.765Z,12.84
2023-01-22T15:07:18.213Z,12.82
2023-01-22T15:09:46.552Z,12.80
2023-01-22T15:12:17.178Z,12.67
2023-01-22T15:14:45.444Z,12.79
2023-01-22T15:17:14.686Z,12.83
2023-01-22T15:19:42.840Z,12.78
2023-01-22T15:22:34.629Z,12.80
2023-01-22T15:25:02.842Z,12.74
2023-01-22T15:27:30.933Z,12.82
2023-01-22T15:29:59.018Z,12.80
2023-01-22T15:32:27.615Z,12.78
2023-01-22T15:34:58.064Z,12.78
2023-01-22T15:37:30.004Z,12.70
2023-01-22T15:39:59.129Z,12.72
2023-01-22T15:42:28.419Z,12.60
2023-01-22T15:44:56.810Z,12.69
2023-01-22T15:47:29.857Z,12.71
2023-01-22T15:49:57.926Z,12.51
2023-01-22T15:52:29.786Z,12.67
2023-01-22T15:55:01.999Z,12.66
2023-01-22T15:57:30.252Z,12.65
2023-01-22T15:59:58.263Z,12.57
2023-01-22T16:02:26.314Z,12.52
2023-01-22T16:04:54.657Z,12.52
2023-01-22T16:07:22.817Z,12.38
2023-01-22T16:09:53.415Z,12.37
2023-01-22T16:12:22.703Z,12.39
2023-01-22T16:14:51.922Z,12.38
2023-01-22T16:17:22.739Z,12.32
2023-01-22T16:19:52.111Z,12.32
2023-01-22T16:22:20.076Z,12.29
2023-01-22T16:24:48.138Z,12.26
2023-01-22T16:27:19.901Z,12.22
2023-01-22T16:29:48.212Z,12.13
2023-01-22T16:32:18.951Z,12.16
2023-01-22T16:34:48.277Z,12.13
2023-01-22T16:37:24.943Z,12.11
2023-01-22T16:39:53.047Z,12.02
2023-01-22T16:42:25.934Z,12.01
2023-01-22T16:44:56.890Z,11.99
2023-01-22T16:47:25.009Z,11.94
2023-01-22T16:49:55.061Z,11.86
2023-01-22T16:52:23.271Z,11.87
2023-01-22T16:54:51.344Z,11.84
2023-01-22T16:57:22.285Z,11.79
2023-01-22T16:59:51.630Z,11.74
2023-01-22T17:02:19.990Z,11.68
2023-01-22T17:04:48.192Z,11.54
2023-01-22T17:07:32.211Z,11.57
2023-01-22T17:10:01.606Z,11.51
2023-01-22T17:12:29.850Z,11.46
2023-01-22T17:15:03.231Z,11.42
2023-01-22T17:17:34.085Z,11.37
2023-01-22T17:20:04.601Z,11.34
2023-01-22T17:22:41.925Z,11.30
2023-01-22T17:25:10.297Z,11.26
2023-01-22T17:27:39.636Z,11.22
2023-01-22T17:30:11.629Z,11.18
2023-01-22T17:32:42.650Z,11.13
2023-01-22T17:35:13.787Z,11.08
2023-01-22T17:37:42.033Z,11.05
2023-01-22T17:40:11.272Z,11.02
2023-01-22T17:42:39.388Z,10.97
2023-01-22T17:45:11.400Z,10.94
2023-01-22T17:47:39.638Z,10.92
2023-01-22T17:50:08.852Z,10.88
2023-01-22T17:52:37.091Z,10.88
2023-01-22T17:55:05.886Z,10.87
2023-01-22T17:57:35.554Z,10.77
2023-01-22T18:00:03.658Z,10.76
2023-01-22T18:02:40.744Z,10.83
2023-01-22T18:05:10.459Z,10.81
2023-01-22T18:07:38.954Z,10.79
2023-01-22T18:10:07.402Z,10.77
2023-01-22T18:12:35.656Z,10.77
2023-01-22T18:15:06.376Z,10.71
2023-01-22T18:17:35.267Z,10.78
2023-01-22T18:20:08.064Z,10.80
2023-01-22T18:22:36.364Z,10.83
2023-01-22T18:25:04.489Z,10.81
2023-01-22T18:27:33.747Z,10.80
2023-01-22T18:30:08.184Z,10.86
2023-01-22T18:32:39.515Z,10.70
2023-01-22T18:35:10.417Z,10.86
2023-01-22T18:37:38.510Z,10.77
2023-01-22T18:40:07.724Z,10.83
2023-01-22T18:42:37.008Z,10.81
2023-01-22T18:45:07.983Z,10.85
2023-01-22T18:47:37.312Z,10.83
2023-01-22T18:50:05.822Z,10.83
2023-01-22T18:52:44.815Z,10.81
2023-01-22T18:55:12.890Z,10.82
2023-01-22T18:57:43.034Z,10.83
2023-01-22T19:00:13.397Z,10.81
2023-01-22T19:02:41.554Z,10.83
2023-01-22T19:05:11.981Z,10.80
2023-01-22T19:07:44.455Z,10.74
2023-01-22T19:10:14.036Z,10.82
2023-01-22T19:12:44.699Z,10.81
2023-01-22T19:15:15.770Z,10.80
2023-01-22T19:17:43.849Z,10.86
2023-01-22T19:20:15.620Z,10.86
2023-01-22T19:22:45.172Z,10.75
2023-01-22T19:25:13.258Z,10.87
2023-01-22T19:27:41.297Z,10.88
2023-01-22T19:30:10.538Z,10.91
2023-01-22T19:32:41.221Z,10.92
2023-01-22T19:35:10.009Z,10.94
2023-01-22T19:37:38.014Z,10.95
2023-01-22T19:40:10.506Z,10.94
2023-01-22T19:42:41.434Z,10.86
2023-01-22T19:45:10.814Z,10.94
2023-01-22T19:47:38.781Z,10.93
2023-01-22T19:50:10.676Z,10.98
2023-01-22T19:52:38.777Z,10.97
2023-01-22T19:55:11.073Z,10.94
2023-01-22T19:57:40.447Z,11.00
2023-01-22T20:00:13.714Z,10.87
2023-01-22T20:02:51.523Z,10.95
2023-01-22T20:05:22.651Z,10.93
2023-01-22T20:07:52.194Z,11.00
2023-01-22T20:10:21.551Z,11.01
2023-01-22T20:12:50.970Z,11.00
2023-01-22T20:15:19.543Z,10.98
2023-01-22T20:17:50.104Z,10.95
2023-01-22T20:20:18.425Z,10.91
2023-01-22T20:22:46.427Z,10.87
2023-01-22T20:25:15.360Z,10.83
2023-01-22T20:27:44.709Z,10.77
2023-01-22T20:30:13.349Z,10.72
2023-01-22T20:32:41.335Z,10.68
2023-01-22T20:35:11.747Z,10.66
2023-01-22T20:37:39.892Z,10.66
2023-01-22T20:40:09.127Z,10.63
2023-01-22T20:42:38.388Z,10.61
2023-01-22T20:45:09.095Z,10.60
2023-01-22T20:47:40.580Z,10.59
2023-01-22T20:50:12.899Z,10.59
2023-01-22T20:52:40.884Z,10.60
2023-01-22T20:55:10.642Z,10.59
2023-01-22T20:57:38.910Z,10.61
2023-01-22T21:00:09.664Z,10.59
2023-01-22T21:02:37.636Z,10.58
2023-01-22T21:05:06.702Z,10.55
2023-01-22T21:07:36.934Z,10.54
2023-01-22T21:10:05.534Z,10.55
2023-01-22T21:12:33.510Z,10.55
2023-01-22T21:15:03.016Z,10.49
2023-01-22T21:17:32.689Z,10.52
2023-01-22T21:20:00.615Z,10.51
2023-01-22T21:22:28.749Z,10.53
2023-01-22T21:24:56.686Z,10.52
2023-01-22T21:27:24.795Z,10.54
2023-01-22T21:29:52.789Z,10.54
2023-01-22T21:32:20.774Z,10.56
2023-01-22T21:34:50.491Z,10.58
2023-01-22T21:37:18.534Z,10.60
2023-01-22T21:39:46.480Z,10.61
2023-01-22T21:42:28.362Z,10.61
2023-01-22T21:45:14.026Z,10.59
2023-01-22T21:47:41.956Z,10.63
2023-01-22T21:50:12.464Z,10.57
2023-01-22T21:52:42.484Z,10.56
2023-01-22T21:55:11.990Z,10.57
2023-01-22T21:57:39.953Z,10.55
2023-01-22T22:00:09.539Z,10.56
2023-01-22T22:02:37.670Z,10.53
2023-01-22T22:05:07.316Z,10.55
2023-01-22T22:07:39.567Z,10.53
2023-01-22T22:10:14.098Z,10.54
2023-01-22T22:12:42.267Z,10.44
2023-01-22T22:15:13.119Z,10.44
2023-01-22T22:17:41.282Z,10.53
2023-01-22T22:20:11.118Z,10.54
2023-01-22T22:22:40.575Z,10.50
2023-01-22T22:25:09.453Z,10.49
2023-01-22T22:27:37.459Z,10.52
2023-01-22T22:30:06.149Z,10.48
2023-01-22T22:32:34.131Z,10.44
2023-01-22T22:35:04.147Z,10.43
2023-01-22T22:37:32.192Z,10.44
2023-01-22T22:40:02.938Z,10.44
2023-01-22T22:42:31.199Z,10.43
2023-01-22T22:44:59.157Z,10.38
2023-01-22T22:47:27.108Z,10.41
2023-01-22T22:49:55.044Z,10.35
2023-01-22T22:52:23.068Z,10.12
2023-01-22T22:54:51.058Z,10.24
2023-01-22T22:57:20.459Z,10.13
2023-01-22T22:59:48.448Z,10.03
2023-01-22T23:02:16.373Z,9.96
2023-01-22T23:04:44.581Z,9.89
2023-01-22T23:07:20.037Z,9.88
2023-01-22T23:09:50.437Z,9.86
2023-01-22T23:12:22.250Z,9.80
2023-01-22T23:14:53.196Z,9.75
2023-01-22T23:17:21.307Z,9.71
2023-01-22T23:19:49.323Z,9.66
2023-01-22T23:22:17.660Z,9.64
2023-01-22T23:24:47.212Z,9.63
2023-01-22T23:27:15.233Z,9.61
2023-01-22T23:29:46.908Z,9.59
2023-01-22T23:32:23.098Z,9.57
2023-01-22T23:34:51.139Z,9.57
2023-01-22T23:37:19.181Z,9.42
2023-01-22T23:39:51.210Z,9.52
2023-01-22T23:42:19.262Z,9.50
2023-01-22T23:44:48.745Z,9.48
2023-01-22T23:47:16.856Z,9.43
2023-01-22T23:49:44.816Z,9.43
2023-01-22T23:52:12.852Z,9.40
2023-01-22T23:54:40.784Z,9.42
2023-01-22T23:57:08.861Z,9.33
2023-01-22T23:59:39.285Z,9.33
